Y89 weather

Kalkaska City Airport
Kalkaska, Michigan, United States

Public forecast

Using degrees Fahrenheit for public forecast. Weather courtesy of forecast.io.

METAR (pilot weather report)

Closest report is Antrim County Airport, 15.8 nm (29.3 km) N. Retrieved 2019/06/16 02:35 UTC (0 seconds ago):

KACB 160235Z AUTO 00000KT 10SM CLR 11/08 A2989 RMK AO2 T01140080

TAF (pilot weather forecast)

Forecast is more than 12 hours old.

Closest forecast is Cherry Capital Airport, 16.2 nm (30.0 km) W. Retrieved 2019/06/15 00:22 UTC (1 day ago):

TAF KTVC 152320Z 1600/1624 02005KT P6SM FEW250 FM160400 VRB03KT P6SM SCT180 FM161000 00000KT P6SM BKN150 FM161800 03005KT P6SM SCT100 FM162100 01008KT P6SM BKN090